sensor_id;sensor_type;location;lat;lon;timestamp;P1;durP1;ratioP1;P2;durP2;ratioP2
76900;SDS011;65859;43.020;25.096;2023-02-01T00:00:52;5.65;;;4.00;;
76900;SDS011;65859;43.020;25.096;2023-02-01T00:03:19;3.90;;;3.45;;
76900;SDS011;65859;43.020;25.096;2023-02-01T00:05:54;5.05;;;4.00;;
76900;SDS011;65859;43.020;25.096;2023-02-01T00:08:22;43.78;;;20.55;;
76900;SDS011;65859;43.020;25.096;2023-02-01T00:10:48;6.85;;;4.05;;
76900;SDS011;65859;43.020;25.096;2023-02-01T00:13:22;6.85;;;3.60;;
76900;SDS011;65859;43.020;25.096;2023-02-01T00:15:49;6.55;;;3.50;;
76900;SDS011;65859;43.020;25.096;2023-02-01T00:18:15;8.13;;;3.88;;
76900;SDS011;65859;43.020;25.096;2023-02-01T00:20:45;5.68;;;4.40;;
76900;SDS011;65859;43.020;25.096;2023-02-01T00:23:12;10.63;;;5.00;;
76900;SDS011;65859;43.020;25.096;2023-02-01T00:25:39;6.28;;;3.78;;
76900;SDS011;65859;43.020;25.096;2023-02-01T00:28:06;5.25;;;3.65;;
76900;SDS011;65859;43.020;25.096;2023-02-01T00:30:32;7.38;;;4.05;;
76900;SDS011;65859;43.020;25.096;2023-02-01T00:32:58;6.00;;;3.47;;
76900;SDS011;65859;43.020;25.096;2023-02-01T00:35:25;6.07;;;4.10;;
76900;SDS011;65859;43.020;25.096;2023-02-01T00:37:51;4.70;;;3.65;;
76900;SDS011;65859;43.020;25.096;2023-02-01T00:40:17;6.13;;;3.85;;
76900;SDS011;65859;43.020;25.096;2023-02-01T00:42:44;4.85;;;3.60;;
76900;SDS011;65859;43.020;25.096;2023-02-01T00:45:10;7.70;;;3.83;;
76900;SDS011;65859;43.020;25.096;2023-02-01T00:47:36;5.53;;;3.70;;
76900;SDS011;65859;43.020;25.096;2023-02-01T00:50:03;40.45;;;26.38;;
76900;SDS011;65859;43.020;25.096;2023-02-01T00:52:30;29.77;;;19.33;;
76900;SDS011;65859;43.020;25.096;2023-02-01T00:54:56;18.30;;;11.73;;
76900;SDS011;65859;43.020;25.096;2023-02-01T00:57:24;33.83;;;21.85;;
76900;SDS011;65859;43.020;25.096;2023-02-01T00:59:53;8.50;;;4.45;;
76900;SDS011;65859;43.020;25.096;2023-02-01T01:02:19;5.03;;;3.13;;
76900;SDS011;65859;43.020;25.096;2023-02-01T01:04:46;6.65;;;3.10;;
76900;SDS011;65859;43.020;25.096;2023-02-01T01:07:12;29.20;;;14.43;;
76900;SDS011;65859;43.020;25.096;2023-02-01T01:09:38;10.70;;;5.40;;
76900;SDS011;65859;43.020;25.096;2023-02-01T01:12:05;9.18;;;5.28;;
76900;SDS011;65859;43.020;25.096;2023-02-01T01:14:32;8.70;;;5.40;;
76900;SDS011;65859;43.020;25.096;2023-02-01T01:16:58;7.82;;;3.85;;
76900;SDS011;65859;43.020;25.096;2023-02-01T01:19:24;11.48;;;5.55;;
76900;SDS011;65859;43.020;25.096;2023-02-01T01:21:51;10.13;;;5.28;;
76900;SDS011;65859;43.020;25.096;2023-02-01T01:24:17;10.85;;;3.50;;
76900;SDS011;65859;43.020;25.096;2023-02-01T01:26:43;5.57;;;3.25;;
76900;SDS011;65859;43.020;25.096;2023-02-01T01:29:11;10.88;;;5.40;;
76900;SDS011;65859;43.020;25.096;2023-02-01T01:31:37;8.45;;;3.85;;
76900;SDS011;65859;43.020;25.096;2023-02-01T01:34:04;11.07;;;4.10;;
76900;SDS011;65859;43.020;25.096;2023-02-01T01:36:30;9.27;;;4.15;;
76900;SDS011;65859;43.020;25.096;2023-02-01T01:38:57;5.28;;;2.75;;
76900;SDS011;65859;43.020;25.096;2023-02-01T01:41:25;10.35;;;5.00;;
76900;SDS011;65859;43.020;25.096;2023-02-01T01:43:58;10.32;;;4.43;;
76900;SDS011;65859;43.020;25.096;2023-02-01T01:46:31;10.55;;;4.75;;
76900;SDS011;65859;43.020;25.096;2023-02-01T01:51:36;11.40;;;5.00;;
76900;SDS011;65859;43.020;25.096;2023-02-01T01:54:14;7.63;;;3.80;;
76900;SDS011;65859;43.020;25.096;2023-02-01T01:56:43;6.70;;;3.00;;
76900;SDS011;65859;43.020;25.096;2023-02-01T01:59:17;4.95;;;2.70;;
76900;SDS011;65859;43.020;25.096;2023-02-01T02:01:45;5.75;;;2.80;;
76900;SDS011;65859;43.020;25.096;2023-02-01T02:04:12;5.63;;;3.20;;
76900;SDS011;65859;43.020;25.096;2023-02-01T02:06:40;6.30;;;3.33;;
76900;SDS011;65859;43.020;25.096;2023-02-01T02:09:15;5.22;;;2.70;;
76900;SDS011;65859;43.020;25.096;2023-02-01T02:11:42;8.65;;;3.40;;
76900;SDS011;65859;43.020;25.096;2023-02-01T02:14:09;6.95;;;2.55;;
76900;SDS011;65859;43.020;25.096;2023-02-01T02:20:07;7.68;;;3.67;;
76900;SDS011;65859;43.020;25.096;2023-02-01T02:33:47;7.53;;;3.88;;
76900;SDS011;65859;43.020;25.096;2023-02-01T02:41:59;6.27;;;3.27;;
76900;SDS011;65859;43.020;25.096;2023-02-01T02:45:05;4.05;;;2.85;;
76900;SDS011;65859;43.020;25.096;2023-02-01T02:50:36;9.18;;;4.30;;
76900;SDS011;65859;43.020;25.096;2023-02-01T02:56:46;6.05;;;3.42;;
76900;SDS011;65859;43.020;25.096;2023-02-01T02:59:33;5.78;;;3.42;;
76900;SDS011;65859;43.020;25.096;2023-02-01T03:02:21;6.15;;;3.47;;
76900;SDS011;65859;43.020;25.096;2023-02-01T03:05:08;6.85;;;3.70;;
76900;SDS011;65859;43.020;25.096;2023-02-01T03:10:16;5.55;;;3.42;;
76900;SDS011;65859;43.020;25.096;2023-02-01T03:12:52;4.95;;;3.00;;
76900;SDS011;65859;43.020;25.096;2023-02-01T03:15:34;5.68;;;3.40;;
76900;SDS011;65859;43.020;25.096;2023-02-01T03:18:19;5.05;;;3.20;;
76900;SDS011;65859;43.020;25.096;2023-02-01T03:21:05;7.32;;;2.80;;
76900;SDS011;65859;43.020;25.096;2023-02-01T03:23:36;7.00;;;3.25;;
76900;SDS011;65859;43.020;25.096;2023-02-01T03:26:07;6.32;;;3.28;;
76900;SDS011;65859;43.020;25.096;2023-02-01T03:28:41;6.57;;;3.50;;
76900;SDS011;65859;43.020;25.096;2023-02-01T03:31:12;5.45;;;3.33;;
76900;SDS011;65859;43.020;25.096;2023-02-01T03:33:40;6.47;;;3.03;;
76900;SDS011;65859;43.020;25.096;2023-02-01T03:36:54;6.75;;;3.10;;
76900;SDS011;65859;43.020;25.096;2023-02-01T03:39:21;3.50;;;2.67;;
76900;SDS011;65859;43.020;25.096;2023-02-01T03:41:55;6.32;;;3.50;;
76900;SDS011;65859;43.020;25.096;2023-02-01T03:52:09;6.68;;;3.95;;
76900;SDS011;65859;43.020;25.096;2023-02-01T03:54:42;5.10;;;3.50;;
76900;SDS011;65859;43.020;25.096;2023-02-01T03:57:11;4.80;;;2.88;;
76900;SDS011;65859;43.020;25.096;2023-02-01T03:59:41;4.70;;;3.15;;
76900;SDS011;65859;43.020;25.096;2023-02-01T04:02:09;4.43;;;2.97;;
76900;SDS011;65859;43.020;25.096;2023-02-01T04:04:37;7.13;;;3.33;;
76900;SDS011;65859;43.020;25.096;2023-02-01T04:07:04;7.22;;;3.63;;
76900;SDS011;65859;43.020;25.096;2023-02-01T04:09:30;8.23;;;4.47;;
76900;SDS011;65859;43.020;25.096;2023-02-01T04:11:56;6.55;;;3.85;;
76900;SDS011;65859;43.020;25.096;2023-02-01T04:14:23;4.88;;;3.28;;
76900;SDS011;65859;43.020;25.096;2023-02-01T04:16:49;5.53;;;3.50;;
76900;SDS011;65859;43.020;25.096;2023-02-01T04:19:16;5.20;;;3.13;;
76900;SDS011;65859;43.020;25.096;2023-02-01T04:21:42;7.28;;;4.13;;
76900;SDS011;65859;43.020;25.096;2023-02-01T04:24:08;10.38;;;3.70;;
76900;SDS011;65859;43.020;25.096;2023-02-01T04:26:35;7.30;;;4.05;;
76900;SDS011;65859;43.020;25.096;2023-02-01T04:29:02;8.48;;;5.00;;
76900;SDS011;65859;43.020;25.096;2023-02-01T04:31:28;6.25;;;3.53;;
76900;SDS011;65859;43.020;25.096;2023-02-01T04:33:55;32.63;;;14.98;;
76900;SDS011;65859;43.020;25.096;2023-02-01T04:36:22;8.50;;;4.05;;
76900;SDS011;65859;43.020;25.096;2023-02-01T04:38:49;5.93;;;3.08;;
76900;SDS011;65859;43.020;25.096;2023-02-01T04:41:16;5.53;;;3.63;;
76900;SDS011;65859;43.020;25.096;2023-02-01T04:43:47;4.90;;;3.60;;
76900;SDS011;65859;43.020;25.096;2023-02-01T04:46:14;6.00;;;3.10;;
76900;SDS011;65859;43.020;25.096;2023-02-01T04:48:42;9.43;;;4.45;;
76900;SDS011;65859;43.020;25.096;2023-02-01T04:51:08;8.75;;;4.50;;
76900;SDS011;65859;43.020;25.096;2023-02-01T04:53:35;5.35;;;3.75;;
76900;SDS011;65859;43.020;25.096;2023-02-01T04:56:01;6.68;;;4.05;;
76900;SDS011;65859;43.020;25.096;2023-02-01T04:58:28;8.50;;;3.85;;
76900;SDS011;65859;43.020;25.096;2023-02-01T05:00:54;7.55;;;3.50;;
76900;SDS011;65859;43.020;25.096;2023-02-01T05:03:21;6.18;;;3.03;;
76900;SDS011;65859;43.020;25.096;2023-02-01T05:05:47;7.63;;;3.38;;
76900;SDS011;65859;43.020;25.096;2023-02-01T05:08:14;5.70;;;3.10;;
76900;SDS011;65859;43.020;25.096;2023-02-01T05:10:41;6.35;;;3.47;;
76900;SDS011;65859;43.020;25.096;2023-02-01T05:13:08;7.55;;;3.53;;
76900;SDS011;65859;43.020;25.096;2023-02-01T05:15:54;5.03;;;3.35;;
76900;SDS011;65859;43.020;25.096;2023-02-01T05:18:20;6.57;;;3.10;;
76900;SDS011;65859;43.020;25.096;2023-02-01T05:20:48;7.57;;;3.78;;
76900;SDS011;65859;43.020;25.096;2023-02-01T05:23:14;9.93;;;5.80;;
76900;SDS011;65859;43.020;25.096;2023-02-01T05:25:40;11.48;;;7.30;;
76900;SDS011;65859;43.020;25.096;2023-02-01T05:28:07;7.28;;;4.22;;
76900;SDS011;65859;43.020;25.096;2023-02-01T05:30:33;6.63;;;4.60;;
76900;SDS011;65859;43.020;25.096;2023-02-01T05:33:00;6.00;;;3.65;;
76900;SDS011;65859;43.020;25.096;2023-02-01T05:35:27;7.80;;;4.00;;
76900;SDS011;65859;43.020;25.096;2023-02-01T05:37:53;6.18;;;3.30;;
76900;SDS011;65859;43.020;25.096;2023-02-01T05:40:20;16.08;;;4.40;;
76900;SDS011;65859;43.020;25.096;2023-02-01T05:42:46;8.10;;;5.32;;
76900;SDS011;65859;43.020;25.096;2023-02-01T05:45:13;6.53;;;3.53;;
76900;SDS011;65859;43.020;25.096;2023-02-01T05:47:39;6.60;;;3.70;;
76900;SDS011;65859;43.020;25.096;2023-02-01T05:50:06;7.75;;;4.28;;
76900;SDS011;65859;43.020;25.096;2023-02-01T05:52:34;7.35;;;3.40;;
76900;SDS011;65859;43.020;25.096;2023-02-01T05:55:00;4.55;;;3.20;;
76900;SDS011;65859;43.020;25.096;2023-02-01T05:57:26;5.15;;;3.15;;
76900;SDS011;65859;43.020;25.096;2023-02-01T05:59:53;5.30;;;3.78;;
76900;SDS011;65859;43.020;25.096;2023-02-01T06:02:20;10.50;;;3.70;;
76900;SDS011;65859;43.020;25.096;2023-02-01T06:04:46;5.97;;;3.00;;
76900;SDS011;65859;43.020;25.096;2023-02-01T06:07:13;5.45;;;3.22;;
76900;SDS011;65859;43.020;25.096;2023-02-01T06:09:39;6.43;;;3.40;;
76900;SDS011;65859;43.020;25.096;2023-02-01T06:12:06;4.40;;;2.88;;
76900;SDS011;65859;43.020;25.096;2023-02-01T06:14:32;5.95;;;3.50;;
76900;SDS011;65859;43.020;25.096;2023-02-01T06:16:59;4.03;;;3.10;;
76900;SDS011;65859;43.020;25.096;2023-02-01T06:19:25;6.10;;;3.13;;
76900;SDS011;65859;43.020;25.096;2023-02-01T06:21:51;4.00;;;2.67;;
76900;SDS011;65859;43.020;25.096;2023-02-01T06:24:19;5.68;;;2.97;;
76900;SDS011;65859;43.020;25.096;2023-02-01T06:26:45;5.78;;;3.20;;
76900;SDS011;65859;43.020;25.096;2023-02-01T06:29:12;5.55;;;3.70;;
76900;SDS011;65859;43.020;25.096;2023-02-01T06:31:38;6.82;;;3.22;;
76900;SDS011;65859;43.020;25.096;2023-02-01T06:34:05;8.70;;;3.67;;
76900;SDS011;65859;43.020;25.096;2023-02-01T06:36:31;8.85;;;3.67;;
76900;SDS011;65859;43.020;25.096;2023-02-01T06:38:58;6.28;;;3.83;;
76900;SDS011;65859;43.020;25.096;2023-02-01T06:41:25;5.43;;;4.10;;
76900;SDS011;65859;43.020;25.096;2023-02-01T06:43:52;6.90;;;4.22;;
76900;SDS011;65859;43.020;25.096;2023-02-01T06:46:18;8.05;;;4.45;;
76900;SDS011;65859;43.020;25.096;2023-02-01T06:48:44;7.15;;;3.47;;
76900;SDS011;65859;43.020;25.096;2023-02-01T06:51:18;8.65;;;3.95;;
76900;SDS011;65859;43.020;25.096;2023-02-01T06:53:46;8.10;;;4.88;;
76900;SDS011;65859;43.020;25.096;2023-02-01T06:56:14;7.35;;;4.50;;
76900;SDS011;65859;43.020;25.096;2023-02-01T06:58:40;7.47;;;5.13;;
76900;SDS011;65859;43.020;25.096;2023-02-01T07:01:07;8.68;;;4.32;;
76900;SDS011;65859;43.020;25.096;2023-02-01T07:03:35;5.38;;;4.10;;
76900;SDS011;65859;43.020;25.096;2023-02-01T07:06:02;5.88;;;3.70;;
76900;SDS011;65859;43.020;25.096;2023-02-01T07:08:30;5.00;;;3.55;;
76900;SDS011;65859;43.020;25.096;2023-02-01T07:11:01;5.63;;;3.80;;
76900;SDS011;65859;43.020;25.096;2023-02-01T07:13:29;7.53;;;3.85;;
76900;SDS011;65859;43.020;25.096;2023-02-01T07:15:57;6.57;;;3.90;;
76900;SDS011;65859;43.020;25.096;2023-02-01T07:18:24;4.22;;;2.53;;
76900;SDS011;65859;43.020;25.096;2023-02-01T07:20:51;7.72;;;3.63;;
76900;SDS011;65859;43.020;25.096;2023-02-01T07:23:18;4.63;;;3.20;;
76900;SDS011;65859;43.020;25.096;2023-02-01T07:25:45;7.10;;;3.60;;
76900;SDS011;65859;43.020;25.096;2023-02-01T07:28:13;8.77;;;4.30;;
76900;SDS011;65859;43.020;25.096;2023-02-01T07:30:40;7.68;;;4.25;;
76900;SDS011;65859;43.020;25.096;2023-02-01T07:33:06;6.00;;;3.65;;
76900;SDS011;65859;43.020;25.096;2023-02-01T07:35:33;9.52;;;4.40;;
76900;SDS011;65859;43.020;25.096;2023-02-01T07:38:00;4.07;;;3.00;;
76900;SDS011;65859;43.020;25.096;2023-02-01T07:40:26;8.30;;;3.53;;
76900;SDS011;65859;43.020;25.096;2023-02-01T07:42:56;7.55;;;3.58;;
76900;SDS011;65859;43.020;25.096;2023-02-01T07:45:25;6.40;;;3.70;;
76900;SDS011;65859;43.020;25.096;2023-02-01T07:47:51;7.65;;;3.40;;
76900;SDS011;65859;43.020;25.096;2023-02-01T07:50:18;8.63;;;4.72;;
76900;SDS011;65859;43.020;25.096;2023-02-01T07:52:45;9.10;;;4.22;;
76900;SDS011;65859;43.020;25.096;2023-02-01T07:55:14;7.93;;;3.10;;
76900;SDS011;65859;43.020;25.096;2023-02-01T07:57:41;5.78;;;3.25;;
76900;SDS011;65859;43.020;25.096;2023-02-01T08:00:09;6.20;;;3.25;;
76900;SDS011;65859;43.020;25.096;2023-02-01T08:02:57;6.45;;;3.33;;
76900;SDS011;65859;43.020;25.096;2023-02-01T08:05:24;6.85;;;3.28;;
76900;SDS011;65859;43.020;25.096;2023-02-01T08:07:50;12.93;;;7.15;;
76900;SDS011;65859;43.020;25.096;2023-02-01T08:10:17;8.00;;;5.10;;
76900;SDS011;65859;43.020;25.096;2023-02-01T08:12:44;5.43;;;3.45;;
76900;SDS011;65859;43.020;25.096;2023-02-01T08:15:16;7.72;;;3.40;;
76900;SDS011;65859;43.020;25.096;2023-02-01T08:17:47;7.10;;;3.60;;
76900;SDS011;65859;43.020;25.096;2023-02-01T08:20:14;5.82;;;3.83;;
76900;SDS011;65859;43.020;25.096;2023-02-01T08:22:41;7.85;;;5.05;;
76900;SDS011;65859;43.020;25.096;2023-02-01T08:25:08;7.18;;;4.32;;
76900;SDS011;65859;43.020;25.096;2023-02-01T08:27:34;7.90;;;3.75;;
76900;SDS011;65859;43.020;25.096;2023-02-01T08:30:01;6.00;;;3.08;;
76900;SDS011;65859;43.020;25.096;2023-02-01T08:32:29;5.28;;;3.25;;
76900;SDS011;65859;43.020;25.096;2023-02-01T08:34:56;7.60;;;3.28;;
76900;SDS011;65859;43.020;25.096;2023-02-01T08:37:25;5.10;;;3.15;;
76900;SDS011;65859;43.020;25.096;2023-02-01T08:39:52;7.70;;;3.42;;
76900;SDS011;65859;43.020;25.096;2023-02-01T08:42:18;6.25;;;3.33;;
76900;SDS011;65859;43.020;25.096;2023-02-01T08:45:04;5.30;;;3.45;;
76900;SDS011;65859;43.020;25.096;2023-02-01T08:47:33;6.75;;;3.15;;
76900;SDS011;65859;43.020;25.096;2023-02-01T08:50:00;6.70;;;3.22;;
76900;SDS011;65859;43.020;25.096;2023-02-01T08:52:26;5.05;;;2.53;;
76900;SDS011;65859;43.020;25.096;2023-02-01T08:54:53;14.00;;;3.58;;
76900;SDS011;65859;43.020;25.096;2023-02-01T08:57:19;9.40;;;3.20;;
76900;SDS011;65859;43.020;25.096;2023-02-01T08:59:45;6.97;;;4.07;;
76900;SDS011;65859;43.020;25.096;2023-02-01T09:02:13;6.63;;;3.35;;
76900;SDS011;65859;43.020;25.096;2023-02-01T09:04:41;18.08;;;8.80;;
76900;SDS011;65859;43.020;25.096;2023-02-01T09:07:08;16.92;;;8.05;;
76900;SDS011;65859;43.020;25.096;2023-02-01T09:09:36;8.32;;;4.38;;
76900;SDS011;65859;43.020;25.096;2023-02-01T09:12:03;6.97;;;3.90;;
76900;SDS011;65859;43.020;25.096;2023-02-01T09:14:30;9.00;;;3.35;;
76900;SDS011;65859;43.020;25.096;2023-02-01T09:16:57;7.22;;;3.20;;
76900;SDS011;65859;43.020;25.096;2023-02-01T09:19:23;17.67;;;7.35;;
76900;SDS011;65859;43.020;25.096;2023-02-01T09:21:49;12.95;;;6.10;;
76900;SDS011;65859;43.020;25.096;2023-02-01T09:24:16;6.60;;;3.70;;
76900;SDS011;65859;43.020;25.096;2023-02-01T09:26:42;10.50;;;6.50;;
76900;SDS011;65859;43.020;25.096;2023-02-01T09:29:09;6.45;;;3.08;;
76900;SDS011;65859;43.020;25.096;2023-02-01T09:31:35;20.92;;;8.60;;
76900;SDS011;65859;43.020;25.096;2023-02-01T09:34:03;9.23;;;5.13;;
76900;SDS011;65859;43.020;25.096;2023-02-01T09:36:31;15.10;;;5.93;;
76900;SDS011;65859;43.020;25.096;2023-02-01T09:38:58;6.78;;;3.30;;
76900;SDS011;65859;43.020;25.096;2023-02-01T09:46:55;13.15;;;4.68;;
76900;SDS011;65859;43.020;25.096;2023-02-01T09:49:24;13.18;;;4.10;;
76900;SDS011;65859;43.020;25.096;2023-02-01T09:51:54;6.28;;;2.97;;
76900;SDS011;65859;43.020;25.096;2023-02-01T09:54:25;6.43;;;3.35;;
76900;SDS011;65859;43.020;25.096;2023-02-01T09:59:41;4.40;;;2.90;;
76900;SDS011;65859;43.020;25.096;2023-02-01T10:02:13;6.15;;;2.70;;
76900;SDS011;65859;43.020;25.096;2023-02-01T10:04:44;3.97;;;2.38;;
76900;SDS011;65859;43.020;25.096;2023-02-01T10:15:23;5.75;;;4.00;;
76900;SDS011;65859;43.020;25.096;2023-02-01T10:20:49;10.18;;;3.83;;
76900;SDS011;65859;43.020;25.096;2023-02-01T10:23:28;8.48;;;2.80;;
76900;SDS011;65859;43.020;25.096;2023-02-01T10:28:51;10.25;;;4.43;;
76900;SDS011;65859;43.020;25.096;2023-02-01T10:31:24;4.50;;;2.30;;
76900;SDS011;65859;43.020;25.096;2023-02-01T10:33:59;6.10;;;3.10;;
76900;SDS011;65859;43.020;25.096;2023-02-01T10:36:35;7.30;;;4.00;;
76900;SDS011;65859;43.020;25.096;2023-02-01T10:39:16;4.68;;;2.65;;
76900;SDS011;65859;43.020;25.096;2023-02-01T10:41:44;9.02;;;2.90;;
76900;SDS011;65859;43.020;25.096;2023-02-01T10:44:16;5.10;;;3.00;;
76900;SDS011;65859;43.020;25.096;2023-02-01T10:46:48;6.15;;;2.88;;
76900;SDS011;65859;43.020;25.096;2023-02-01T10:49:19;6.82;;;3.05;;
76900;SDS011;65859;43.020;25.096;2023-02-01T10:52:42;2.78;;;2.17;;
76900;SDS011;65859;43.020;25.096;2023-02-01T10:58:00;4.35;;;2.20;;
76900;SDS011;65859;43.020;25.096;2023-02-01T11:00:34;8.40;;;3.60;;
76900;SDS011;65859;43.020;25.096;2023-02-01T11:03:41;6.68;;;3.08;;
76900;SDS011;65859;43.020;25.096;2023-02-01T11:08:55;3.13;;;1.90;;
76900;SDS011;65859;43.020;25.096;2023-02-01T11:11:56;6.22;;;3.08;;
76900;SDS011;65859;43.020;25.096;2023-02-01T11:14:38;7.20;;;2.50;;
76900;SDS011;65859;43.020;25.096;2023-02-01T11:19:47;6.90;;;1.90;;
76900;SDS011;65859;43.020;25.096;2023-02-01T11:22:26;8.30;;;2.28;;
76900;SDS011;65859;43.020;25.096;2023-02-01T11:24:54;4.68;;;1.60;;
76900;SDS011;65859;43.020;25.096;2023-02-01T11:27:22;4.78;;;2.10;;
76900;SDS011;65859;43.020;25.096;2023-02-01T11:29:50;4.10;;;1.75;;
76900;SDS011;65859;43.020;25.096;2023-02-01T11:32:20;5.40;;;1.80;;
76900;SDS011;65859;43.020;25.096;2023-02-01T11:34:53;5.70;;;2.13;;
76900;SDS011;65859;43.020;25.096;2023-02-01T11:37:38;6.00;;;2.45;;
76900;SDS011;65859;43.020;25.096;2023-02-01T11:45:42;7.93;;;1.70;;
76900;SDS011;65859;43.020;25.096;2023-02-01T11:48:24;5.60;;;2.40;;
76900;SDS011;65859;43.020;25.096;2023-02-01T11:51:04;3.17;;;1.60;;
76900;SDS011;65859;43.020;25.096;2023-02-01T11:56:15;4.93;;;2.33;;
76900;SDS011;65859;43.020;25.096;2023-02-01T11:59:23;6.38;;;2.45;;
76900;SDS011;65859;43.020;25.096;2023-02-01T12:02:13;7.70;;;3.30;;
76900;SDS011;65859;43.020;25.096;2023-02-01T12:08:10;4.05;;;2.63;;
76900;SDS011;65859;43.020;25.096;2023-02-01T12:11:06;4.78;;;1.70;;
76900;SDS011;65859;43.020;25.096;2023-02-01T12:16:40;2.78;;;1.50;;
76900;SDS011;65859;43.020;25.096;2023-02-01T12:19:33;6.32;;;1.98;;
76900;SDS011;65859;43.020;25.096;2023-02-01T12:24:50;4.45;;;2.05;;
76900;SDS011;65859;43.020;25.096;2023-02-01T12:30:26;5.50;;;2.65;;
76900;SDS011;65859;43.020;25.096;2023-02-01T12:35:59;6.90;;;3.20;;
76900;SDS011;65859;43.020;25.096;2023-02-01T12:44:54;8.48;;;3.35;;
76900;SDS011;65859;43.020;25.096;2023-02-01T12:47:26;4.93;;;2.55;;
76900;SDS011;65859;43.020;25.096;2023-02-01T12:50:00;5.32;;;3.05;;
76900;SDS011;65859;43.020;25.096;2023-02-01T12:52:30;7.07;;;2.58;;
76900;SDS011;65859;43.020;25.096;2023-02-01T12:55:07;4.18;;;2.00;;
76900;SDS011;65859;43.020;25.096;2023-02-01T12:58:06;4.18;;;2.78;;
76900;SDS011;65859;43.020;25.096;2023-02-01T13:00:58;4.85;;;1.88;;
76900;SDS011;65859;43.020;25.096;2023-02-01T13:03:33;6.55;;;3.17;;
76900;SDS011;65859;43.020;25.096;2023-02-01T13:06:27;3.22;;;2.03;;
76900;SDS011;65859;43.020;25.096;2023-02-01T13:12:54;4.70;;;2.45;;
76900;SDS011;65859;43.020;25.096;2023-02-01T13:15:25;5.07;;;2.10;;
76900;SDS011;65859;43.020;25.096;2023-02-01T13:18:04;7.47;;;2.72;;
76900;SDS011;65859;43.020;25.096;2023-02-01T13:20:34;4.22;;;2.70;;
76900;SDS011;65859;43.020;25.096;2023-02-01T13:23:21;3.90;;;2.00;;
76900;SDS011;65859;43.020;25.096;2023-02-01T13:25:58;5.05;;;2.95;;
76900;SDS011;65859;43.020;25.096;2023-02-01T13:28:28;3.70;;;1.95;;
76900;SDS011;65859;43.020;25.096;2023-02-01T13:39:43;4.65;;;2.55;;
76900;SDS011;65859;43.020;25.096;2023-02-01T13:42:46;4.07;;;2.40;;
76900;SDS011;65859;43.020;25.096;2023-02-01T13:45:45;3.97;;;2.67;;
76900;SDS011;65859;43.020;25.096;2023-02-01T13:48:28;5.90;;;2.17;;
76900;SDS011;65859;43.020;25.096;2023-02-01T13:51:05;4.03;;;2.10;;
76900;SDS011;65859;43.020;25.096;2023-02-01T13:53:36;4.85;;;2.22;;
76900;SDS011;65859;43.020;25.096;2023-02-01T13:56:11;6.15;;;2.88;;
76900;SDS011;65859;43.020;25.096;2023-02-01T13:58:42;4.47;;;1.85;;
76900;SDS011;65859;43.020;25.096;2023-02-01T14:03:52;4.63;;;2.65;;
76900;SDS011;65859;43.020;25.096;2023-02-01T14:11:57;6.85;;;4.72;;
76900;SDS011;65859;43.020;25.096;2023-02-01T14:14:44;11.23;;;5.15;;
76900;SDS011;65859;43.020;25.096;2023-02-01T14:19:47;9.20;;;4.25;;
76900;SDS011;65859;43.020;25.096;2023-02-01T14:24:50;15.50;;;7.17;;
76900;SDS011;65859;43.020;25.096;2023-02-01T14:27:23;13.75;;;6.78;;
76900;SDS011;65859;43.020;25.096;2023-02-01T14:29:59;14.88;;;7.30;;
76900;SDS011;65859;43.020;25.096;2023-02-01T14:32:31;16.33;;;8.20;;
76900;SDS011;65859;43.020;25.096;2023-02-01T14:35:00;8.07;;;3.72;;
76900;SDS011;65859;43.020;25.096;2023-02-01T14:37:32;7.72;;;4.00;;
76900;SDS011;65859;43.020;25.096;2023-02-01T14:40:03;30.42;;;13.68;;
76900;SDS011;65859;43.020;25.096;2023-02-01T14:45:49;11.68;;;6.07;;
76900;SDS011;65859;43.020;25.096;2023-02-01T14:55:40;4.83;;;2.70;;
76900;SDS011;65859;43.020;25.096;2023-02-01T15:01:34;6.57;;;3.53;;
76900;SDS011;65859;43.020;25.096;2023-02-01T15:06:40;6.53;;;3.10;;
76900;SDS011;65859;43.020;25.096;2023-02-01T15:14:46;12.05;;;2.70;;
76900;SDS011;65859;43.020;25.096;2023-02-01T15:17:31;6.50;;;3.72;;
76900;SDS011;65859;43.020;25.096;2023-02-01T15:22:41;7.15;;;4.13;;
76900;SDS011;65859;43.020;25.096;2023-02-01T15:25:20;4.05;;;2.72;;
76900;SDS011;65859;43.020;25.096;2023-02-01T15:27:49;6.95;;;3.30;;
76900;SDS011;65859;43.020;25.096;2023-02-01T15:30:20;6.68;;;3.95;;
76900;SDS011;65859;43.020;25.096;2023-02-01T15:35:54;5.68;;;3.55;;
76900;SDS011;65859;43.020;25.096;2023-02-01T15:43:32;8.02;;;4.88;;
76900;SDS011;65859;43.020;25.096;2023-02-01T15:46:12;12.98;;;9.05;;
76900;SDS011;65859;43.020;25.096;2023-02-01T15:48:49;29.38;;;20.50;;
76900;SDS011;65859;43.020;25.096;2023-02-01T15:51:19;42.47;;;33.33;;
76900;SDS011;65859;43.020;25.096;2023-02-01T15:53:53;42.67;;;30.02;;
76900;SDS011;65859;43.020;25.096;2023-02-01T15:56:26;28.73;;;16.90;;
76900;SDS011;65859;43.020;25.096;2023-02-01T16:01:24;24.67;;;14.88;;
76900;SDS011;65859;43.020;25.096;2023-02-01T16:04:01;42.47;;;24.10;;
76900;SDS011;65859;43.020;25.096;2023-02-01T16:06:30;26.70;;;17.85;;
76900;SDS011;65859;43.020;25.096;2023-02-01T16:11:47;20.52;;;11.85;;
76900;SDS011;65859;43.020;25.096;2023-02-01T16:14:27;21.23;;;15.93;;
76900;SDS011;65859;43.020;25.096;2023-02-01T16:16:55;30.63;;;19.25;;
76900;SDS011;65859;43.020;25.096;2023-02-01T16:19:23;31.20;;;18.42;;
76900;SDS011;65859;43.020;25.096;2023-02-01T16:21:54;15.60;;;9.75;;
76900;SDS011;65859;43.020;25.096;2023-02-01T16:24:24;12.38;;;8.68;;
76900;SDS011;65859;43.020;25.096;2023-02-01T16:26:51;15.68;;;9.65;;
76900;SDS011;65859;43.020;25.096;2023-02-01T16:29:17;11.63;;;7.85;;
76900;SDS011;65859;43.020;25.096;2023-02-01T16:31:45;12.85;;;8.65;;
76900;SDS011;65859;43.020;25.096;2023-02-01T16:34:15;12.48;;;9.40;;
76900;SDS011;65859;43.020;25.096;2023-02-01T16:36:43;13.38;;;8.77;;
76900;SDS011;65859;43.020;25.096;2023-02-01T16:39:16;13.63;;;8.98;;
76900;SDS011;65859;43.020;25.096;2023-02-01T16:41:44;22.08;;;14.18;;
76900;SDS011;65859;43.020;25.096;2023-02-01T16:44:13;16.67;;;10.95;;
76900;SDS011;65859;43.020;25.096;2023-02-01T16:46:43;16.40;;;9.18;;
76900;SDS011;65859;43.020;25.096;2023-02-01T16:49:32;14.55;;;9.43;;
76900;SDS011;65859;43.020;25.096;2023-02-01T16:52:00;14.95;;;8.45;;
76900;SDS011;65859;43.020;25.096;2023-02-01T16:54:27;8.45;;;5.72;;
76900;SDS011;65859;43.020;25.096;2023-02-01T16:56:53;9.10;;;6.47;;
76900;SDS011;65859;43.020;25.096;2023-02-01T16:59:20;13.02;;;8.07;;
76900;SDS011;65859;43.020;25.096;2023-02-01T17:01:47;9.27;;;5.47;;
76900;SDS011;65859;43.020;25.096;2023-02-01T17:04:13;7.18;;;5.03;;
76900;SDS011;65859;43.020;25.096;2023-02-01T17:06:41;24.60;;;14.77;;
76900;SDS011;65859;43.020;25.096;2023-02-01T17:09:12;15.48;;;10.15;;
76900;SDS011;65859;43.020;25.096;2023-02-01T17:11:38;17.05;;;10.88;;
76900;SDS011;65859;43.020;25.096;2023-02-01T17:14:15;13.32;;;9.25;;
76900;SDS011;65859;43.020;25.096;2023-02-01T17:16:44;19.52;;;14.25;;
76900;SDS011;65859;43.020;25.096;2023-02-01T17:19:12;20.98;;;14.55;;
76900;SDS011;65859;43.020;25.096;2023-02-01T17:21:48;18.23;;;10.25;;
76900;SDS011;65859;43.020;25.096;2023-02-01T17:24:19;20.98;;;10.85;;
76900;SDS011;65859;43.020;25.096;2023-02-01T17:26:48;16.98;;;10.02;;
76900;SDS011;65859;43.020;25.096;2023-02-01T17:29:16;34.67;;;13.10;;
76900;SDS011;65859;43.020;25.096;2023-02-01T17:31:43;17.67;;;10.25;;
76900;SDS011;65859;43.020;25.096;2023-02-01T17:34:14;16.80;;;10.48;;
76900;SDS011;65859;43.020;25.096;2023-02-01T17:36:44;15.70;;;9.27;;